Time;durP1;ratioP1;P1;durP2;ratioP2;P2;SDS_P1;SDS_P2;PMS_P1;PMS_P2;Temp;Humidity;BMP_temperature;BMP_pressure;BME280_temperature;BME280_humidity;BME280_pressure;Samples;Min_cycle;Max_cycle;Signal;HPM_P1;HPM_P2
2024/04/04 00:01:01;;;;;;;2.83;0.50;;;10.60;86.70;;;;;;5095199;28;20124;-72
2024/04/04 00:03:28;;;;;;;2.17;0.50;;;10.50;86.70;;;;;;5113285;28;20042;-73
2024/04/04 00:05:54;;;;;;;0.85;0.50;;;10.60;86.80;;;;;;5112370;28;20101;-73
2024/04/04 00:08:20;;;;;;;1.70;0.50;;;10.50;86.80;;;;;;5113611;28;20419;-73
2024/04/04 00:10:46;;;;;;;1.67;0.38;;;10.40;86.80;;;;;;5077823;28;20047;-73
2024/04/04 00:13:12;;;;;;;1.30;0.30;;;10.40;86.90;;;;;;5094830;28;20046;-73
2024/04/04 00:15:38;;;;;;;0.75;0.30;;;10.30;87.00;;;;;;5112805;28;20043;-73
2024/04/04 00:18:04;;;;;;;0.57;0.40;;;10.30;87.10;;;;;;5094689;28;20039;-73
2024/04/04 00:20:30;;;;;;;1.20;0.60;;;10.20;87.10;;;;;;5077868;28;20048;-73
2024/04/04 00:22:56;;;;;;;0.73;0.30;;;10.10;87.20;;;;;;5093291;28;20084;-73
2024/04/04 00:25:22;;;;;;;0.70;0.30;;;10.10;87.30;;;;;;5092821;28;20071;-73
2024/04/04 00:27:47;;;;;;;1.00;0.28;;;10.10;87.40;;;;;;5112836;28;20039;-73
2024/04/04 00:30:13;;;;;;;0.35;0.35;;;10.10;87.40;;;;;;5112631;28;20393;-73
2024/04/04 00:32:39;;;;;;;1.30;0.40;;;10.00;87.40;;;;;;5094369;28;20485;-73
2024/04/04 00:35:05;;;;;;;3.40;0.50;;;10.00;87.40;;;;;;5112687;28;20038;-73
2024/04/04 00:37:30;;;;;;;0.30;0.30;;;10.00;87.40;;;;;;5094433;28;20047;-73
2024/04/04 00:39:56;;;;;;;1.55;0.32;;;10.00;87.40;;;;;;5094467;28;20515;-73
2024/04/04 00:42:22;;;;;;;0.35;0.35;;;9.90;87.30;;;;;;5112668;28;20040;-73
2024/04/04 00:44:48;;;;;;;0.60;0.32;;;9.90;87.40;;;;;;5093839;28;20036;-73
2024/04/04 00:47:14;;;;;;;0.88;0.40;;;9.90;87.40;;;;;;5076221;28;20549;-73
2024/04/04 00:49:39;;;;;;;0.50;0.20;;;9.80;87.40;;;;;;5094106;28;20035;-73
2024/04/04 00:52:09;;;;;;;0.25;0.25;;;9.80;87.50;;;;;;5112874;28;20043;-73
2024/04/04 00:54:42;;;;;;;2.05;0.40;;;9.70;87.50;;;;;;5112334;28;20044;-72
2024/04/04 00:57:09;;;;;;;1.60;0.30;;;9.70;87.50;;;;;;5112248;28;20401;-73
2024/04/04 00:59:36;;;;;;;2.50;0.25;;;9.70;87.50;;;;;;5112271;28;20043;-73
2024/04/04 01:02:03;;;;;;;0.40;0.30;;;9.70;87.50;;;;;;5094746;28;20044;-73
2024/04/04 01:04:30;;;;;;;1.50;0.38;;;9.70;87.50;;;;;;5094397;28;20067;-73
2024/04/04 01:06:57;;;;;;;0.57;0.30;;;9.70;87.40;;;;;;5094556;28;20178;-73
2024/04/04 01:09:23;;;;;;;0.80;0.38;;;9.70;87.40;;;;;;5093985;28;20059;-73
2024/04/04 01:11:49;;;;;;;1.80;0.40;;;9.70;87.40;;;;;;5112438;28;20484;-73
2024/04/04 01:14:15;;;;;;;1.13;0.50;;;9.70;87.40;;;;;;5093684;28;20040;-73
2024/04/04 01:16:40;;;;;;;0.40;0.30;;;9.80;87.30;;;;;;5091939;28;20176;-73
2024/04/04 01:19:06;;;;;;;0.70;0.22;;;9.80;87.20;;;;;;5114278;28;20039;-74
2024/04/04 01:21:32;;;;;;;1.83;0.40;;;9.80;87.20;;;;;;5097907;28;20107;-74
2024/04/04 01:23:58;;;;;;;1.25;0.35;;;9.80;87.20;;;;;;5095800;28;20102;-73
2024/04/04 01:26:23;;;;;;;1.38;0.45;;;9.80;87.10;;;;;;5097209;28;20477;-73
2024/04/04 01:28:49;;;;;;;3.42;0.47;;;9.90;87.10;;;;;;5097859;28;20043;-74
2024/04/04 01:31:15;;;;;;;0.43;0.20;;;9.80;86.90;;;;;;5115454;28;20047;-73
2024/04/04 01:33:40;;;;;;;0.40;0.30;;;9.80;86.90;;;;;;5115367;28;20094;-74
2024/04/04 01:36:07;;;;;;;0.75;0.50;;;9.90;87.10;;;;;;5115495;28;20477;-74
2024/04/04 01:38:33;;;;;;;0.80;0.30;;;9.80;87.10;;;;;;5115492;28;20044;-74
2024/04/04 01:40:59;;;;;;;0.40;0.40;;;9.80;87.30;;;;;;5095839;28;20109;-74
2024/04/04 01:43:25;;;;;;;0.80;0.30;;;9.80;87.50;;;;;;5079983;28;20403;-75
2024/04/04 01:45:51;;;;;;;0.22;0.22;;;9.70;87.50;;;;;;5097151;28;20032;-74
2024/04/04 01:48:16;;;;;;;0.57;0.40;;;9.70;87.70;;;;;;5095047;28;20131;-74
2024/04/04 01:50:42;;;;;;;1.05;0.30;;;9.70;87.80;;;;;;5115178;28;20047;-74
2024/04/04 01:53:08;;;;;;;0.80;0.30;;;9.70;88.00;;;;;;5097324;28;20043;-74
2024/04/04 01:55:34;;;;;;;0.77;0.35;;;9.70;88.10;;;;;;5097154;28;20080;-74
2024/04/04 01:58:00;;;;;;;0.82;0.50;;;9.70;88.10;;;;;;5114798;28;20036;-74
2024/04/04 02:00:26;;;;;;;0.98;0.40;;;9.70;88.10;;;;;;5115050;28;20123;-74
2024/04/04 02:02:54;;;;;;;0.38;0.25;;;9.80;88.30;;;;;;5114817;28;20062;-74
2024/04/04 02:05:20;;;;;;;1.60;0.35;;;9.70;88.30;;;;;;5096642;28;20046;-74
2024/04/04 02:07:45;;;;;;;0.22;0.22;;;9.80;88.30;;;;;;5096681;28;20396;-74
2024/04/04 02:10:12;;;;;;;0.30;0.15;;;9.70;88.40;;;;;;5114820;28;20047;-74
2024/04/04 02:12:38;;;;;;;0.20;0.20;;;9.80;88.40;;;;;;5096862;28;20123;-75
2024/04/04 02:15:04;;;;;;;0.52;0.20;;;9.80;88.50;;;;;;5114914;28;20071;-74
2024/04/04 02:17:31;;;;;;;0.98;0.30;;;9.80;88.80;;;;;;5096758;28;20489;-74
2024/04/04 02:19:56;;;;;;;0.20;0.20;;;9.80;88.60;;;;;;5095761;28;20074;-73
2024/04/04 02:22:23;;;;;;;0.55;0.28;;;9.80;88.60;;;;;;5115054;28;20067;-73
2024/04/04 02:24:49;;;;;;;0.85;0.30;;;9.80;88.60;;;;;;5096811;28;20031;-74
2024/04/04 02:27:14;;;;;;;1.73;0.35;;;9.80;88.60;;;;;;5114525;28;20515;-74
2024/04/04 02:29:44;;;;;;;0.63;0.28;;;9.80;88.70;;;;;;5113925;28;20047;-73
2024/04/04 02:32:10;;;;;;;0.40;0.30;;;9.80;88.70;;;;;;5079432;28;20130;-74
2024/04/04 02:34:36;;;;;;;0.30;0.22;;;9.80;88.70;;;;;;5114342;28;20074;-73
2024/04/04 02:37:02;;;;;;;0.25;0.25;;;9.70;88.70;;;;;;5096118;28;20065;-74
2024/04/04 02:39:28;;;;;;;0.30;0.30;;;9.80;88.70;;;;;;5096546;28;20048;-74
2024/04/04 02:41:55;;;;;;;0.70;0.40;;;9.80;88.70;;;;;;5094594;28;20067;-74
2024/04/04 02:44:20;;;;;;;1.30;0.32;;;9.80;88.80;;;;;;5114500;28;20118;-74
2024/04/04 02:46:48;;;;;;;1.42;0.30;;;9.90;88.90;;;;;;5114156;28;20123;-74
2024/04/04 02:49:13;;;;;;;0.20;0.15;;;9.90;88.90;;;;;;5113964;28;20400;-74
2024/04/04 02:51:39;;;;;;;0.47;0.28;;;9.80;88.90;;;;;;5114306;28;20059;-73
2024/04/04 02:54:05;;;;;;;1.00;0.25;;;9.90;89.00;;;;;;5114526;28;20075;-74
2024/04/04 02:56:31;;;;;;;0.15;0.15;;;9.90;89.00;;;;;;5095980;28;20040;-73
2024/04/04 02:58:56;;;;;;;1.17;0.30;;;9.90;89.00;;;;;;5114495;28;20035;-75
2024/04/04 03:01:23;;;;;;;0.20;0.20;;;9.90;89.00;;;;;;5095839;28;20036;-74
2024/04/04 03:03:49;;;;;;;0.52;0.20;;;9.90;89.00;;;;;;5095700;28;20034;-74
2024/04/04 03:06:18;;;;;;;0.40;0.30;;;9.90;89.00;;;;;;5095810;28;20118;-74
2024/04/04 03:08:45;;;;;;;0.40;0.30;;;9.80;89.00;;;;;;5096206;28;20062;-74
2024/04/04 03:11:11;;;;;;;0.30;0.30;;;9.90;89.00;;;;;;5095702;28;20477;-74
2024/04/04 03:13:37;;;;;;;0.20;0.20;;;9.90;89.10;;;;;;5078561;28;20115;-74
2024/04/04 03:16:03;;;;;;;0.20;0.20;;;9.90;89.10;;;;;;5094989;28;20172;-75
2024/04/04 03:18:29;;;;;;;0.20;0.20;;;9.90;89.20;;;;;;5079412;28;20436;-74
2024/04/04 03:20:55;;;;;;;0.32;0.20;;;9.90;89.20;;;;;;5113755;28;20063;-74
2024/04/04 03:23:21;;;;;;;0.55;0.43;;;9.90;89.30;;;;;;5114115;28;20508;-74
2024/04/04 03:25:48;;;;;;;0.80;0.20;;;9.90;89.30;;;;;;5094487;28;20043;-75
2024/04/04 03:28:14;;;;;;;0.47;0.30;;;9.90;89.40;;;;;;5113795;28;20036;-74
2024/04/04 03:30:40;;;;;;;0.63;0.30;;;9.90;89.40;;;;;;5113594;28;20122;-74
2024/04/04 03:33:06;;;;;;;0.30;0.30;;;9.90;89.50;;;;;;5114152;28;20189;-74
2024/04/04 03:35:32;;;;;;;1.10;0.30;;;9.80;89.40;;;;;;5078296;28;20105;-74
2024/04/04 03:37:58;;;;;;;0.32;0.30;;;9.90;89.50;;;;;;5113526;28;20096;-73
2024/04/04 03:40:24;;;;;;;0.20;0.20;;;9.90;89.60;;;;;;5094626;28;20036;-74
2024/04/04 03:42:49;;;;;;;0.20;0.20;;;9.80;89.60;;;;;;5095045;28;20392;-74
2024/04/04 03:45:16;;;;;;;0.20;0.20;;;9.90;89.70;;;;;;5095433;28;20116;-73
2024/04/04 03:47:41;;;;;;;0.32;0.20;;;9.90;89.70;;;;;;5113331;28;20039;-74
2024/04/04 03:50:07;;;;;;;0.52;0.20;;;9.80;89.60;;;;;;5094927;28;20134;-74
2024/04/04 03:52:33;;;;;;;0.20;0.20;;;9.90;89.70;;;;;;5113676;28;20036;-74
2024/04/04 03:55:00;;;;;;;0.50;0.20;;;9.90;89.70;;;;;;5094976;28;20071;-74
2024/04/04 03:57:26;;;;;;;0.73;0.30;;;9.90;89.70;;;;;;5095110;28;20440;-74
2024/04/04 03:59:51;;;;;;;0.20;0.20;;;9.90;89.80;;;;;;5078265;28;20035;-75
2024/04/04 04:02:18;;;;;;;0.17;0.17;;;9.90;89.90;;;;;;5113954;28;20073;-75
2024/04/04 04:04:44;;;;;;;1.48;0.30;;;9.90;89.90;;;;;;5114119;28;20038;-75
2024/04/04 04:07:10;;;;;;;0.35;0.35;;;9.90;90.00;;;;;;5113711;28;20126;-75
2024/04/04 04:09:35;;;;;;;0.57;0.40;;;9.90;90.00;;;;;;5113331;28;20042;-75
2024/04/04 04:12:02;;;;;;;0.22;0.22;;;9.90;90.00;;;;;;5113530;28;20048;-75
2024/04/04 04:14:31;;;;;;;0.30;0.30;;;9.90;90.00;;;;;;5095031;28;20100;-75
2024/04/04 04:16:57;;;;;;;0.73;0.30;;;10.00;90.10;;;;;;5095132;28;20060;-75
2024/04/04 04:19:23;;;;;;;0.30;0.20;;;9.90;90.10;;;;;;5113838;28;20039;-75
2024/04/04 04:21:49;;;;;;;0.47;0.40;;;9.90;90.10;;;;;;5113739;28;20541;-74
2024/04/04 04:24:15;;;;;;;0.40;0.40;;;9.90;90.10;;;;;;5113083;28;20044;-74
2024/04/04 04:26:41;;;;;;;0.82;0.40;;;9.90;90.10;;;;;;5078207;28;20047;-74
2024/04/04 04:29:07;;;;;;;0.30;0.30;;;10.00;90.20;;;;;;5077726;28;20039;-74
2024/04/04 04:31:36;;;;;;;0.75;0.60;;;10.00;90.20;;;;;;5113060;28;20039;-74
2024/04/04 04:34:03;;;;;;;0.68;0.40;;;9.90;90.20;;;;;;5092631;28;20052;-73
2024/04/04 04:36:46;;;;;;;0.65;0.63;;;10.00;90.20;;;;;;5112656;28;20046;-73
2024/04/04 04:39:12;;;;;;;0.43;0.40;;;10.10;90.20;;;;;;5112744;28;20055;-74
2024/04/04 04:41:38;;;;;;;1.50;0.60;;;10.10;90.30;;;;;;5112660;28;20042;-73
2024/04/04 04:44:04;;;;;;;0.30;0.30;;;10.10;90.10;;;;;;5094783;28;20035;-75
2024/04/04 04:46:30;;;;;;;1.10;0.40;;;10.20;90.10;;;;;;5112857;28;20040;-74
2024/04/04 04:48:56;;;;;;;2.40;0.60;;;10.30;90.10;;;;;;5112605;28;20048;-74
2024/04/04 04:51:22;;;;;;;0.65;0.43;;;10.30;90.10;;;;;;5095051;28;20050;-74
2024/04/04 04:53:47;;;;;;;0.50;0.50;;;10.30;90.10;;;;;;5112901;28;20035;-74
2024/04/04 04:56:20;;;;;;;1.15;0.70;;;10.40;90.20;;;;;;5112430;28;20055;-75
2024/04/04 04:58:45;;;;;;;0.52;0.50;;;10.40;90.20;;;;;;5094672;28;20476;-75
2024/04/04 05:01:11;;;;;;;0.52;0.50;;;10.40;90.20;;;;;;5112773;28;20043;-75
2024/04/04 05:03:37;;;;;;;0.52;0.52;;;10.40;90.20;;;;;;5094236;28;20081;-74
2024/04/04 05:06:04;;;;;;;0.90;0.57;;;10.40;90.20;;;;;;5112617;28;20035;-75
2024/04/04 05:08:31;;;;;;;1.38;0.60;;;10.50;90.20;;;;;;5094480;28;20097;-75
2024/04/04 05:10:57;;;;;;;0.95;0.55;;;10.50;90.30;;;;;;5094265;28;20043;-75
2024/04/04 05:13:22;;;;;;;0.63;0.57;;;10.50;90.30;;;;;;5075814;28;20044;-75
2024/04/04 05:15:53;;;;;;;2.95;0.80;;;10.60;90.30;;;;;;5094160;28;20442;-75
2024/04/04 05:18:19;;;;;;;0.77;0.50;;;10.60;90.30;;;;;;5094541;28;20044;-75
2024/04/04 05:20:45;;;;;;;0.70;0.50;;;10.60;90.30;;;;;;5112326;28;20082;-75
2024/04/04 05:23:11;;;;;;;0.82;0.50;;;10.70;90.40;;;;;;5112507;28;20101;-75
2024/04/04 05:25:36;;;;;;;1.10;0.40;;;10.70;90.40;;;;;;5112174;28;20062;-75
2024/04/04 05:28:05;;;;;;;0.70;0.50;;;10.70;90.40;;;;;;5112414;28;20501;-75
2024/04/04 05:30:31;;;;;;;0.40;0.40;;;10.70;90.40;;;;;;5112126;28;20039;-74
2024/04/04 05:33:01;;;;;;;0.68;0.60;;;10.70;90.40;;;;;;5112470;28;20066;-74
2024/04/04 05:35:28;;;;;;;0.82;0.50;;;10.70;90.50;;;;;;5092467;28;20048;-74
2024/04/04 05:37:54;;;;;;;1.23;0.60;;;10.80;90.50;;;;;;5111871;28;20055;-75
2024/04/04 05:40:20;;;;;;;1.13;0.60;;;10.80;90.50;;;;;;5112062;28;20055;-74
2024/04/04 05:42:45;;;;;;;1.95;0.55;;;10.80;90.50;;;;;;5112188;28;20035;-75
2024/04/04 05:45:11;;;;;;;0.32;0.32;;;10.90;90.50;;;;;;5112484;28;20443;-75
2024/04/04 05:47:37;;;;;;;0.38;0.30;;;10.90;90.60;;;;;;5077067;28;20043;-74
2024/04/04 05:50:03;;;;;;;1.05;0.40;;;10.90;90.60;;;;;;5111940;28;20118;-75
2024/04/04 05:52:30;;;;;;;1.02;0.50;;;11.00;90.60;;;;;;5077011;28;20067;-74
2024/04/04 05:54:57;;;;;;;1.05;0.60;;;11.00;90.60;;;;;;5092150;28;20042;-74
2024/04/04 05:57:23;;;;;;;1.02;0.60;;;11.00;90.60;;;;;;5093424;28;20040;-75
2024/04/04 05:59:49;;;;;;;1.77;0.60;;;11.00;90.60;;;;;;5111545;28;20065;-74
2024/04/04 06:02:15;;;;;;;0.70;0.50;;;11.10;90.70;;;;;;5077011;28;20130;-75
2024/04/04 06:04:42;;;;;;;1.25;0.60;;;11.10;90.70;;;;;;5095844;28;20086;-74
2024/04/04 06:07:09;;;;;;;0.47;0.47;;;11.10;90.70;;;;;;5080262;28;20404;-74
2024/04/04 06:09:34;;;;;;;1.17;0.60;;;11.10;90.70;;;;;;5096097;28;20451;-73
2024/04/04 06:12:00;;;;;;;1.27;0.57;;;11.20;90.70;;;;;;5115130;28;20051;-74
2024/04/04 06:14:26;;;;;;;0.77;0.60;;;11.20;90.70;;;;;;5114970;28;20134;-74
2024/04/04 06:16:51;;;;;;;0.60;0.60;;;11.30;90.80;;;;;;5115364;28;20036;-74
2024/04/04 06:19:17;;;;;;;0.52;0.47;;;11.30;90.80;;;;;;5114853;28;20043;-74
2024/04/04 06:21:43;;;;;;;1.80;0.70;;;11.30;90.80;;;;;;5114988;28;20039;-75
2024/04/04 06:24:09;;;;;;;1.58;0.70;;;11.30;90.80;;;;;;5114758;28;20060;-74
2024/04/04 06:26:34;;;;;;;1.27;0.60;;;11.40;90.80;;;;;;5114676;28;20043;-74
2024/04/04 06:29:00;;;;;;;0.75;0.60;;;11.40;90.80;;;;;;5096709;28;20054;-74
2024/04/04 06:31:26;;;;;;;2.28;0.90;;;11.40;90.80;;;;;;5114590;28;20126;-74
2024/04/04 06:33:52;;;;;;;0.52;0.50;;;11.40;90.80;;;;;;5096455;28;20097;-73
2024/04/04 06:36:18;;;;;;;0.75;0.50;;;11.40;90.80;;;;;;5114828;28;20035;-74
2024/04/04 06:38:46;;;;;;;1.67;0.60;;;11.50;90.90;;;;;;5080598;28;20046;-74
2024/04/04 06:41:11;;;;;;;1.38;0.50;;;11.50;90.90;;;;;;5079355;28;20043;-73
2024/04/04 06:43:37;;;;;;;1.48;0.50;;;11.50;90.90;;;;;;5114590;28;20505;-74
2024/04/04 06:46:04;;;;;;;2.28;0.60;;;11.50;90.90;;;;;;5096605;28;20039;-74
2024/04/04 06:48:30;;;;;;;2.05;0.60;;;11.50;90.90;;;;;;5096388;28;20047;-74
2024/04/04 06:50:56;;;;;;;2.38;0.88;;;11.60;91.00;;;;;;5095913;28;20046;-74
2024/04/04 06:53:22;;;;;;;0.95;0.70;;;11.60;91.00;;;;;;5114487;28;20401;-73
2024/04/04 06:55:47;;;;;;;1.10;0.50;;;11.70;91.00;;;;;;5096138;28;20503;-74
2024/04/04 06:58:14;;;;;;;2.63;0.55;;;11.70;91.00;;;;;;5114692;28;20401;-74
2024/04/04 07:00:41;;;;;;;2.05;0.60;;;11.70;91.00;;;;;;5095415;28;20036;-74
2024/04/04 07:03:07;;;;;;;1.27;0.50;;;11.70;91.00;;;;;;5114554;28;20161;-74
2024/04/04 07:05:34;;;;;;;0.82;0.60;;;11.70;91.00;;;;;;5094781;28;20040;-74
2024/04/04 07:08:00;;;;;;;0.52;0.47;;;11.80;91.10;;;;;;5114287;28;20058;-74
2024/04/04 07:10:25;;;;;;;1.10;0.80;;;11.70;91.10;;;;;;5114272;28;20619;-74
2024/04/04 07:12:52;;;;;;;0.52;0.45;;;11.80;91.10;;;;;;5096003;28;20043;-74
2024/04/04 07:15:18;;;;;;;3.03;0.70;;;11.80;91.10;;;;;;5096409;28;20036;-73
2024/04/04 07:17:43;;;;;;;1.58;0.65;;;11.80;91.10;;;;;;5095139;28;20047;-73
2024/04/04 07:20:09;;;;;;;0.38;0.38;;;11.90;91.10;;;;;;5095720;28;20036;-74
2024/04/04 07:22:35;;;;;;;1.08;0.50;;;11.90;91.10;;;;;;5113948;28;20088;-73
2024/04/04 07:25:01;;;;;;;0.60;0.40;;;11.90;91.10;;;;;;5114124;28;20481;-73
2024/04/04 07:27:27;;;;;;;1.23;0.52;;;12.00;91.20;;;;;;5114498;28;20065;-74
2024/04/04 07:29:54;;;;;;;0.63;0.40;;;12.00;91.20;;;;;;5096072;28;20040;-74
2024/04/04 07:32:20;;;;;;;1.35;0.60;;;12.00;91.20;;;;;;5114061;28;20031;-74
2024/04/04 07:34:45;;;;;;;1.92;0.60;;;12.00;91.20;;;;;;5113654;28;20042;-73
2024/04/04 07:37:11;;;;;;;1.50;0.70;;;12.00;91.20;;;;;;5095650;28;20405;-73
2024/04/04 07:39:37;;;;;;;0.60;0.60;;;12.00;91.20;;;;;;5113859;28;20507;-74
2024/04/04 07:42:03;;;;;;;0.63;0.30;;;12.00;91.20;;;;;;5113735;28;20545;-74
2024/04/04 07:44:30;;;;;;;1.35;0.65;;;12.10;91.20;;;;;;5095315;28;20435;-73
2024/04/04 07:46:56;;;;;;;1.27;0.73;;;12.10;91.30;;;;;;5095687;28;20047;-73
2024/04/04 07:49:21;;;;;;;0.55;0.40;;;12.10;91.30;;;;;;5093484;28;20040;-73
2024/04/04 07:51:48;;;;;;;2.55;0.70;;;12.10;91.30;;;;;;5113494;28;20051;-73
2024/04/04 07:54:14;;;;;;;0.52;0.50;;;12.20;91.30;;;;;;5113605;28;20114;-74
2024/04/04 07:56:40;;;;;;;1.60;0.65;;;12.20;91.30;;;;;;5113703;28;20090;-73
2024/04/04 07:59:07;;;;;;;1.40;0.40;;;12.20;91.30;;;;;;5113468;28;20485;-74
2024/04/04 08:01:34;;;;;;;0.65;0.40;;;12.20;91.30;;;;;;5094924;28;20112;-73
2024/04/04 08:04:00;;;;;;;0.40;0.40;;;12.30;91.40;;;;;;5113153;28;20067;-74
2024/04/04 08:06:25;;;;;;;0.55;0.38;;;12.30;91.40;;;;;;5095395;28;20036;-74
2024/04/04 08:08:51;;;;;;;0.75;0.40;;;12.30;91.60;;;;;;5095091;28;20035;-74
2024/04/04 08:11:17;;;;;;;0.43;0.40;;;12.40;91.40;;;;;;5095719;28;20055;-73
2024/04/04 08:13:43;;;;;;;1.15;0.50;;;12.30;91.40;;;;;;5113898;28;20123;-75
2024/04/04 08:16:10;;;;;;;0.68;0.45;;;12.30;91.40;;;;;;5095513;28;20382;-75
2024/04/04 08:18:36;;;;;;;0.40;0.30;;;12.30;91.40;;;;;;5096312;28;20067;-74
2024/04/04 08:21:03;;;;;;;0.32;0.32;;;12.40;91.40;;;;;;5115273;28;20150;-74
2024/04/04 08:23:30;;;;;;;0.88;0.50;;;12.30;91.40;;;;;;5096964;28;20043;-74
2024/04/04 08:25:57;;;;;;;1.92;0.40;;;12.40;91.40;;;;;;5077940;28;20133;-74
2024/04/04 08:28:24;;;;;;;1.85;0.60;;;12.30;91.40;;;;;;5094374;28;20478;-75
2024/04/04 08:30:59;;;;;;;0.75;0.40;;;12.40;91.40;;;;;;5116769;28;20078;-75
2024/04/04 08:33:25;;;;;;;0.75;0.50;;;12.40;91.50;;;;;;5096747;28;20467;-75
2024/04/04 08:35:54;;;;;;;1.33;0.50;;;12.40;91.50;;;;;;5118283;28;20047;-75
2024/04/04 08:38:20;;;;;;;0.75;0.50;;;12.40;91.50;;;;;;5081799;28;20075;-74
2024/04/04 08:40:48;;;;;;;0.88;0.40;;;12.30;91.50;;;;;;5081141;28;20054;-75
2024/04/04 08:43:16;;;;;;;1.13;0.45;;;12.40;91.50;;;;;;5115816;28;20044;-75
2024/04/04 08:45:47;;;;;;;0.52;0.43;;;12.40;91.50;;;;;;5081202;28;20035;-74
2024/04/04 08:48:17;;;;;;;1.25;0.50;;;12.40;91.50;;;;;;5099422;28;20031;-75
2024/04/04 08:50:45;;;;;;;0.82;0.40;;;12.40;91.40;;;;;;5116023;28;20047;-75
2024/04/04 08:53:15;;;;;;;1.63;0.57;;;12.50;91.50;;;;;;5114749;28;20397;-75
2024/04/04 08:55:42;;;;;;;0.40;0.40;;;12.50;91.50;;;;;;5094532;28;20050;-75
2024/04/04 08:58:11;;;;;;;0.82;0.60;;;12.50;91.50;;;;;;5095355;28;20046;-75
2024/04/04 09:00:37;;;;;;;0.70;0.40;;;12.50;91.50;;;;;;5114791;28;20497;-75
2024/04/04 09:03:03;;;;;;;0.85;0.65;;;12.50;91.40;;;;;;5095406;28;20039;-76
2024/04/04 09:05:29;;;;;;;0.77;0.52;;;12.50;91.40;;;;;;5095589;28;20036;-74
2024/04/04 09:07:54;;;;;;;0.60;0.60;;;12.50;91.40;;;;;;5113261;28;20043;-75
2024/04/04 09:10:20;;;;;;;0.95;0.55;;;12.50;91.70;;;;;;5094962;28;20107;-74
2024/04/04 09:12:46;;;;;;;0.98;0.60;;;12.60;91.40;;;;;;5094156;28;20118;-75
2024/04/04 09:15:13;;;;;;;0.68;0.57;;;12.60;91.40;;;;;;5114423;28;20043;-74
2024/04/04 09:17:39;;;;;;;1.15;0.50;;;12.60;91.40;;;;;;5061433;28;20036;-74
2024/04/04 09:20:06;;;;;;;1.08;0.40;;;12.60;91.40;;;;;;5114112;28;20050;-74
2024/04/04 09:22:31;;;;;;;0.52;0.52;;;12.60;91.40;;;;;;5093033;28;20032;-74
2024/04/04 09:24:59;;;;;;;0.50;0.50;;;12.60;91.40;;;;;;5094760;28;20047;-74
2024/04/04 09:27:26;;;;;;;2.05;0.85;;;12.70;91.40;;;;;;5094650;28;20152;-74
2024/04/04 09:29:53;;;;;;;1.67;0.90;;;12.70;91.40;;;;;;5113254;28;20040;-76
2024/04/04 09:32:19;;;;;;;1.77;0.70;;;12.70;91.40;;;;;;5112267;28;20047;-75
2024/04/04 09:34:46;;;;;;;1.35;0.63;;;12.70;91.40;;;;;;5095367;28;20048;-75
2024/04/04 09:37:14;;;;;;;0.50;0.50;;;12.80;91.40;;;;;;5094607;28;20122;-74
2024/04/04 09:39:41;;;;;;;0.85;0.70;;;12.80;91.60;;;;;;5113528;28;20043;-74
2024/04/04 09:42:08;;;;;;;0.50;0.50;;;12.80;91.40;;;;;;5097663;28;20097;-75
2024/04/04 09:44:36;;;;;;;0.43;0.43;;;12.80;91.40;;;;;;5080834;28;20431;-74
2024/04/04 09:47:04;;;;;;;0.50;0.50;;;12.90;91.40;;;;;;5115924;28;20477;-74
2024/04/04 09:49:31;;;;;;;0.82;0.50;;;12.90;91.40;;;;;;5115532;28;20067;-75
2024/04/04 09:52:00;;;;;;;0.70;0.50;;;13.00;91.40;;;;;;5115604;28;20089;-75
2024/04/04 09:54:27;;;;;;;0.70;0.38;;;13.10;91.30;;;;;;5115787;28;20439;-74
2024/04/04 09:56:55;;;;;;;0.57;0.57;;;13.10;91.30;;;;;;5097179;28;20048;-75
2024/04/04 09:59:29;;;;;;;0.82;0.52;;;13.00;91.30;;;;;;5115345;28;20047;-74
2024/04/04 10:02:03;;;;;;;0.73;0.60;;;12.90;91.30;;;;;;5113363;28;20440;-75
2024/04/04 10:04:37;;;;;;;0.50;0.50;;;13.00;91.40;;;;;;5116247;28;20093;-75
2024/04/04 10:07:04;;;;;;;1.40;0.60;;;13.10;91.40;;;;;;5115528;28;20126;-75
2024/04/04 10:09:38;;;;;;;1.17;0.65;;;13.10;91.40;;;;;;5115937;28;20039;-76
2024/04/04 10:12:13;;;;;;;1.80;0.60;;;13.20;91.30;;;;;;5081146;28;20059;-75
2024/04/04 10:14:49;;;;;;;2.05;0.90;;;13.20;91.20;;;;;;5117330;28;20059;-74
2024/04/04 10:17:16;;;;;;;1.67;0.90;;;13.30;91.10;;;;;;5096938;28;20130;-75
2024/04/04 10:19:45;;;;;;;1.08;0.75;;;13.10;91.20;;;;;;5080662;28;20040;-74
2024/04/04 10:22:16;;;;;;;1.25;0.70;;;13.10;91.30;;;;;;5115532;28;20118;-74
2024/04/04 10:24:42;;;;;;;;;;;13.00;91.40;;;;;;5117161;28;20038;-76
2024/04/04 10:27:11;;;;;;;0.60;0.60;;;13.00;91.50;;;;;;5114486;28;19911;-77
2024/04/04 10:29:38;;;;;;;1.45;0.77;;;13.00;91.50;;;;;;5131527;28;20063;-75
2024/04/04 10:32:05;;;;;;;1.00;0.60;;;13.20;91.50;;;;;;5131147;28;20035;-75
2024/04/04 10:34:32;;;;;;;0.60;0.60;;;13.30;91.30;;;;;;5109426;28;20124;-77
2024/04/04 10:36:58;;;;;;;0.50;0.50;;;13.40;91.10;;;;;;5108094;28;20048;-75
2024/04/04 10:39:24;;;;;;;1.95;0.70;;;13.50;91.00;;;;;;5127861;28;20062;-76
2024/04/04 10:41:56;;;;;;;1.23;0.70;;;13.60;90.90;;;;;;5111022;28;20039;-76
2024/04/04 10:44:22;;;;;;;2.45;0.90;;;13.70;90.80;;;;;;5128574;28;20451;-76
2024/04/04 10:46:50;;;;;;;1.00;0.70;;;13.80;90.70;;;;;;5108262;28;20055;-76
2024/04/04 10:49:19;;;;;;;0.52;0.50;;;13.80;90.70;;;;;;5127636;28;20044;-76
2024/04/04 10:51:50;;;;;;;1.25;0.70;;;13.90;90.70;;;;;;5089533;28;20125;-76
2024/04/04 10:54:18;;;;;;;1.55;0.70;;;14.00;90.60;;;;;;5128747;28;20074;-75
2024/04/04 10:56:45;;;;;;;1.85;0.68;;;14.00;90.60;;;;;;5130872;28;20135;-75
2024/04/04 10:59:15;;;;;;;0.93;0.52;;;14.10;90.50;;;;;;5111949;28;20092;-77
2024/04/04 11:01:41;;;;;;;1.27;0.50;;;14.20;90.50;;;;;;5127896;28;20452;-75
2024/04/04 11:04:10;;;;;;;1.25;0.60;;;14.40;90.40;;;;;;5109062;28;20469;-76
2024/04/04 11:06:37;;;;;;;0.50;0.50;;;14.50;90.60;;;;;;5107885;28;20070;-76
2024/04/04 11:09:11;;;;;;;0.95;0.63;;;14.60;90.10;;;;;;5090593;28;20044;-76
2024/04/04 11:11:38;;;;;;;0.60;0.60;;;14.70;90.00;;;;;;5106284;28;20035;-75
2024/04/04 11:14:05;;;;;;;1.05;0.80;;;14.80;89.80;;;;;;5100980;28;20036;-76
2024/04/04 11:16:31;;;;;;;1.25;0.50;;;14.80;89.60;;;;;;5085282;28;20128;-75
2024/04/04 11:18:59;;;;;;;1.98;0.55;;;14.80;89.40;;;;;;5121402;28;20047;-75
2024/04/04 11:21:24;;;;;;;2.00;0.60;;;15.00;89.10;;;;;;5101361;28;20044;-75
2024/04/04 11:23:50;;;;;;;2.63;0.60;;;15.00;88.90;;;;;;5102821;28;20092;-75
2024/04/04 11:26:16;;;;;;;1.60;0.60;;;15.10;88.60;;;;;;5098465;28;20115;-75
2024/04/04 11:28:42;;;;;;;2.22;0.70;;;15.20;88.10;;;;;;5096683;28;20046;-75
2024/04/04 11:31:08;;;;;;;1.05;0.60;;;15.10;87.80;;;;;;5079637;28;20564;-75
2024/04/04 11:33:33;;;;;;;0.98;0.60;;;15.10;87.90;;;;;;5116089;28;20130;-75
2024/04/04 11:36:00;;;;;;;1.40;0.40;;;15.10;88.00;;;;;;5114938;28;20092;-75
2024/04/04 11:38:26;;;;;;;1.27;0.65;;;15.10;88.00;;;;;;5097854;28;20040;-75
2024/04/04 11:40:52;;;;;;;3.00;0.50;;;15.10;87.80;;;;;;5116543;28;20118;-75
2024/04/04 11:43:18;;;;;;;2.63;0.80;;;15.10;87.60;;;;;;5115544;28;20070;-75
2024/04/04 11:45:44;;;;;;;3.45;0.90;;;15.10;87.20;;;;;;5116559;28;20100;-74
2024/04/04 11:48:09;;;;;;;4.70;1.10;;;15.10;87.10;;;;;;5117747;28;20047;-75
2024/04/04 11:50:36;;;;;;;2.17;0.95;;;15.20;86.60;;;;;;5082059;28;20052;-75
2024/04/04 11:53:02;;;;;;;4.68;1.20;;;15.20;86.40;;;;;;5115663;28;20040;-75
2024/04/04 11:55:28;;;;;;;2.88;1.00;;;15.10;86.10;;;;;;5098797;28;20050;-75
2024/04/04 11:57:54;;;;;;;2.53;0.85;;;15.10;85.90;;;;;;5116418;28;20065;-75
2024/04/04 12:00:21;;;;;;;4.50;1.10;;;15.10;85.70;;;;;;5114674;28;20084;-74
2024/04/04 12:02:47;;;;;;;2.13;0.70;;;15.10;85.50;;;;;;5114632;28;20039;-74
2024/04/04 12:05:15;;;;;;;3.60;1.00;;;15.10;85.50;;;;;;5097150;28;20043;-74
2024/04/04 12:07:41;;;;;;;2.83;1.10;;;15.00;85.20;;;;;;5095194;28;20050;-75
2024/04/04 12:10:09;;;;;;;3.22;0.90;;;15.00;85.20;;;;;;5093821;28;20077;-75
2024/04/04 12:12:35;;;;;;;1.20;0.57;;;15.00;85.30;;;;;;5095428;28;20039;-75
2024/04/04 12:15:07;;;;;;;2.53;0.90;;;15.00;85.40;;;;;;5078812;28;20048;-74
2024/04/04 12:17:36;;;;;;;2.45;0.82;;;15.00;85.40;;;;;;5096823;28;20055;-74
2024/04/04 12:20:03;;;;;;;2.75;0.90;;;15.20;85.30;;;;;;5096959;28;20091;-74
2024/04/04 12:22:29;;;;;;;2.03;0.70;;;15.10;84.70;;;;;;5114458;28;20384;-75
2024/04/04 12:24:56;;;;;;;3.45;1.00;;;15.10;84.40;;;;;;5114733;28;20073;-75
2024/04/04 12:27:22;;;;;;;1.75;0.70;;;15.20;84.40;;;;;;5096288;28;20044;-75
2024/04/04 12:29:48;;;;;;;2.72;0.80;;;15.00;84.40;;;;;;5096447;28;20043;-75
2024/04/04 12:32:13;;;;;;;2.60;0.90;;;14.90;84.80;;;;;;5114020;28;20409;-75
2024/04/04 12:34:39;;;;;;;3.60;0.90;;;15.00;84.80;;;;;;5093734;28;20036;-75
2024/04/04 12:37:05;;;;;;;2.95;1.00;;;15.00;84.60;;;;;;5113140;28;20127;-75
2024/04/04 12:39:30;;;;;;;4.10;1.10;;;15.10;84.50;;;;;;5079525;28;20554;-75
2024/04/04 12:41:56;;;;;;;2.67;1.00;;;15.20;84.40;;;;;;5095871;28;20106;-75
2024/04/04 12:44:22;;;;;;;2.60;1.17;;;15.40;84.00;;;;;;5113633;28;20507;-75
2024/04/04 12:46:48;;;;;;;3.03;1.27;;;15.50;83.50;;;;;;5062240;28;20412;-74